Terminal Aerodrome Forecast
Issued by NWS Mt. Holly, NJ

Current Version | Previous Version | Text Only | Print | Product List | Glossary On
Versions: 1 2 3 4 5 6 7 8 9 10 11 12 13 14 15 16 17 18 19 20
000
FTUS41 KPHI 301200 AAA
TAFRDG
TAF AMD
KRDG 301220Z 3012/3112 VRB03KT P6SM FEW002
      TEMPO 3012/3014 6SM BR SCT002
     FM301400 30003KT P6SM SCT005
     FM301600 32008KT P6SM BKN050
     FM310300 VRB02KT P6SM SCT250=

USA.gov is the U.S. government's official web portal to all federal, state and local government web resources and services.